createdAt,value
2022-08-24T00:09:10.639Z,99600.45
2022-08-24T00:19:17.286Z,99591.65
2022-08-24T00:29:24.747Z,99587.73
2022-08-24T00:39:30.814Z,99580.58
2022-08-24T00:49:41.869Z,99584.11
2022-08-24T00:59:51.655Z,99582.55
2022-08-24T01:10:05.282Z,99584.09
2022-08-24T01:20:13.799Z,99584.48
2022-08-24T01:30:21.583Z,99592.63
2022-08-24T01:40:39.757Z,99589.77
2022-08-24T01:50:45.581Z,99592.32
2022-08-24T02:00:51.483Z,99607.58
2022-08-24T02:10:57.734Z,99614.51
2022-08-24T02:21:03.934Z,99622.92
2022-08-24T02:31:12.208Z,99624.43
2022-08-24T02:41:16.457Z,99634.94
2022-08-24T02:51:24.652Z,99639.52
2022-08-24T03:01:32.929Z,99652.47
2022-08-24T03:11:39.528Z,99648.91
2022-08-24T03:21:50.453Z,99651.09
2022-08-24T03:31:57.559Z,99651.13
2022-08-24T03:42:05.852Z,99657.72
2022-08-24T03:52:11.729Z,99669.80
2022-08-24T04:02:17.842Z,99675.92
2022-08-24T04:12:23.883Z,99669.13
2022-08-24T04:22:31.893Z,99664.89
2022-08-24T04:32:37.717Z,99666.45
2022-08-24T04:42:44.505Z,99670.95
2022-08-24T04:52:50.765Z,99670.70
2022-08-24T05:02:57.520Z,99676.19
2022-08-24T05:13:03.681Z,99677.12
2022-08-24T05:23:09.924Z,99679.35
2022-08-24T05:33:15.849Z,99692.27
2022-08-24T05:43:21.734Z,99693.23
2022-08-24T05:53:27.842Z,99698.60
2022-08-24T06:03:37.617Z,99696.70
2022-08-24T06:13:43.448Z,99696.08
2022-08-24T06:23:51.150Z,99699.48
2022-08-24T06:33:55.810Z,99706.56
2022-08-24T06:44:02.039Z,99715.27
2022-08-24T06:54:08.254Z,99719.51
2022-08-24T07:04:14.055Z,99711.71
2022-08-24T07:14:21.730Z,99719.16
2022-08-24T07:24:27.906Z,99742.55
2022-08-24T07:34:34.042Z,99744.27
2022-08-24T07:44:40.536Z,99747.05
2022-08-24T07:54:44.762Z,99745.48
2022-08-24T08:04:50.638Z,99747.66
2022-08-24T08:14:57.558Z,99747.23
2022-08-24T08:25:03.436Z,99765.55
2022-08-24T08:35:10.874Z,99766.11
2022-08-24T08:45:32.365Z,99772.29
2022-08-24T08:55:47.045Z,99776.30
2022-08-24T09:06:13.859Z,99781.59
2022-08-24T09:16:25.861Z,99779.14
2022-08-24T09:26:39.733Z,99791.85
2022-08-24T09:36:56.621Z,99786.09
2022-08-24T09:47:51.602Z,99792.79
2022-08-24T09:58:13.596Z,99793.90
2022-08-24T10:08:30.174Z,99785.65
2022-08-24T10:18:52.369Z,99783.59
2022-08-24T10:29:15.618Z,99787.54
2022-08-24T10:40:02.966Z,99785.27
2022-08-24T10:50:35.751Z,99780.06
2022-08-24T11:00:43.129Z,99785.89
2022-08-24T11:11:04.935Z,99785.02
2022-08-24T11:21:11.182Z,99784.44
2022-08-24T11:31:30.191Z,99792.02
2022-08-24T11:41:49.278Z,99782.15
2022-08-24T11:52:01.752Z,99786.45
2022-08-24T12:02:15.128Z,99788.44
2022-08-24T12:12:28.852Z,99789.50
2022-08-24T12:22:35.242Z,99785.61
2022-08-24T12:32:44.902Z,99786.64
2022-08-24T12:42:54.796Z,99782.20
2022-08-24T12:53:27.510Z,99779.65
2022-08-24T13:03:38.180Z,99773.37
2022-08-24T13:13:49.082Z,99773.48
2022-08-24T13:24:39.738Z,99778.73
2022-08-24T13:34:48.076Z,99782.77
2022-08-24T13:45:08.716Z,99779.90
2022-08-24T13:55:32.932Z,99777.52
2022-08-24T14:05:47.195Z,99760.16
2022-08-24T14:16:14.162Z,99754.88
2022-08-24T14:27:06.972Z,99753.98
2022-08-24T14:37:23.944Z,99757.17
2022-08-24T14:47:52.178Z,99759.25
2022-08-24T14:58:17.530Z,99743.77
2022-08-24T15:08:39.320Z,99750.75
2022-08-24T15:18:55.540Z,99756.48
2022-08-24T15:29:13.176Z,99768.91
2022-08-24T15:39:28.135Z,99768.59
2022-08-24T15:49:39.579Z,99762.05
2022-08-24T15:59:51.107Z,99773.23
2022-08-24T16:10:12.994Z,99775.64
2022-08-24T16:20:33.897Z,99781.27
2022-08-24T16:30:44.653Z,99791.27
2022-08-24T16:40:52.419Z,99811.55
2022-08-24T16:50:58.268Z,99818.72
2022-08-24T17:01:05.412Z,99821.40
2022-08-24T17:11:11.356Z,99824.17
2022-08-24T17:21:17.877Z,99818.80
2022-08-24T17:31:25.417Z,99814.97
2022-08-24T17:41:31.342Z,99814.38
2022-08-24T17:51:37.328Z,99808.46
2022-08-24T18:01:44.633Z,99811.48
2022-08-24T18:11:50.572Z,99818.25
2022-08-24T18:21:56.573Z,99868.66
2022-08-24T18:32:02.672Z,99946.72
2022-08-24T18:42:12.674Z,99968.92
2022-08-24T18:52:19.477Z,99980.52
2022-08-24T19:02:33.477Z,99975.83
2022-08-24T19:12:46.779Z,99961.80
2022-08-24T19:22:52.922Z,99954.40
2022-08-24T19:32:59.882Z,99961.48
2022-08-24T19:43:05.923Z,99952.27
2022-08-24T19:53:15.073Z,99951.17
2022-08-24T20:03:20.928Z,99951.54
2022-08-24T20:13:26.745Z,99943.45
2022-08-24T20:23:33.084Z,99921.24
2022-08-24T20:33:38.789Z,99894.15
2022-08-24T20:43:45.119Z,99879.95
2022-08-24T20:53:50.917Z,99864.39
2022-08-24T21:04:00.271Z,99857.80
2022-08-24T21:14:08.687Z,99880.58
2022-08-24T21:24:15.439Z,99879.67
2022-08-24T21:34:38.659Z,99871.20
2022-08-24T21:44:45.902Z,99869.61
2022-08-24T21:54:52.276Z,99868.36
2022-08-24T22:04:58.120Z,99859.31
2022-08-24T22:15:04.836Z,99846.16
2022-08-24T22:25:13.101Z,99843.34
2022-08-24T22:35:18.915Z,99838.65
2022-08-24T22:45:25.125Z,99825.29
2022-08-24T22:55:33.205Z,99828.98
2022-08-24T23:05:38.938Z,99822.09
2022-08-24T23:15:45.073Z,99814.62
2022-08-24T23:25:51.053Z,99789.98
2022-08-24T23:35:56.926Z,99782.45
2022-08-24T23:46:07.456Z,99777.05
2022-08-24T23:56:15.687Z,99790.36
